createdAt,value
2023-04-18T05:15:35.368Z,17.00
2023-04-18T05:20:36.760Z,19.17
2023-04-18T05:25:38.106Z,17.02
2023-04-18T05:30:39.871Z,19.38
2023-04-18T05:35:41.227Z,17.35
2023-04-18T05:40:42.522Z,20.42
2023-04-18T05:45:45.074Z,15.15
2023-04-18T05:50:46.367Z,15.18
2023-04-18T05:55:47.852Z,16.85
2023-04-18T06:00:49.156Z,17.33
2023-04-18T06:05:51.065Z,18.45
2023-04-18T06:10:52.424Z,24.10
2023-04-18T06:15:53.987Z,15.93
2023-04-18T06:20:55.353Z,17.92
2023-04-18T06:25:57.069Z,13.18
2023-04-18T06:30:58.421Z,18.10
2023-04-18T06:35:59.765Z,15.88
2023-04-18T06:41:01.195Z,13.23
2023-04-18T06:46:04.121Z,14.55
2023-04-18T06:51:05.527Z,14.90
2023-04-18T06:56:07.027Z,12.73
2023-04-18T07:01:08.560Z,12.40
2023-04-18T07:06:10.000Z,13.60
2023-04-18T07:11:11.382Z,13.52
2023-04-18T07:16:12.828Z,13.55
2023-04-18T07:21:14.141Z,10.60
2023-04-18T07:26:15.468Z,11.35
2023-04-18T07:31:16.994Z,11.52
2023-04-18T07:36:18.440Z,10.45
2023-04-18T07:51:23.099Z,10.82
2023-04-18T07:56:24.527Z,10.40
2023-04-18T08:01:25.920Z,11.10
2023-04-18T08:06:28.293Z,10.50
2023-04-18T08:11:30.233Z,9.90
2023-04-18T08:16:31.522Z,9.30
2023-04-18T08:21:32.880Z,10.02
2023-04-18T08:26:34.130Z,10.93
2023-04-18T08:31:36.538Z,10.35
2023-04-18T08:36:37.932Z,9.63
2023-04-18T08:41:42.162Z,10.25
2023-04-18T08:46:43.452Z,11.57
2023-04-18T08:51:48.729Z,9.65
2023-04-18T08:57:09.242Z,10.07
2023-04-18T09:02:11.312Z,9.50
2023-04-18T09:07:13.672Z,10.80
2023-04-18T09:12:19.261Z,12.25
2023-04-18T09:17:34.125Z,11.10
2023-04-18T09:22:45.913Z,11.13
2023-04-18T09:27:47.281Z,10.88
2023-04-18T09:32:56.887Z,10.20
2023-04-18T09:37:58.340Z,9.95
2023-04-18T09:42:59.723Z,9.05
2023-04-18T09:48:01.093Z,9.35
2023-04-18T09:53:02.683Z,9.23
2023-04-18T09:58:04.752Z,9.70
2023-04-18T10:03:08.032Z,9.60
2023-04-18T10:08:10.334Z,10.05
2023-04-18T10:13:13.306Z,8.02
2023-04-18T10:18:15.528Z,9.88
2023-04-18T10:23:32.242Z,9.23
2023-04-18T10:28:53.919Z,8.30
2023-04-18T10:34:04.503Z,7.72
2023-04-18T10:39:23.049Z,8.35
2023-04-18T10:44:24.549Z,7.95
2023-04-18T10:49:37.678Z,7.65
2023-04-18T10:54:46.687Z,8.85
2023-04-18T10:59:54.279Z,8.50
2023-04-18T11:04:56.631Z,8.23
2023-04-18T11:09:58.046Z,8.40
2023-04-18T11:15:00.275Z,7.47
2023-04-18T11:20:03.153Z,8.93
2023-04-18T11:35:12.423Z,9.73
2023-04-18T11:40:13.929Z,7.85
2023-04-18T11:45:18.029Z,10.00
2023-04-18T11:50:20.603Z,9.18
2023-04-18T11:55:24.938Z,10.40
2023-04-18T12:16:01.331Z,8.50
2023-04-18T12:21:04.887Z,11.30
2023-04-18T12:26:07.177Z,9.30
2023-04-18T12:31:14.582Z,8.15
2023-04-18T12:36:16.277Z,9.63
2023-04-18T12:41:17.658Z,9.43
2023-04-18T12:46:19.100Z,8.15
2023-04-18T12:51:20.687Z,9.18
2023-04-18T12:56:22.161Z,8.18
2023-04-18T13:06:26.564Z,9.75
2023-04-18T13:11:33.837Z,7.13
2023-04-18T13:16:35.228Z,7.15
2023-04-18T13:21:39.918Z,8.07
2023-04-18T13:26:48.841Z,9.02
2023-04-18T13:32:06.506Z,9.10
2023-04-18T13:37:11.448Z,8.02
2023-04-18T13:42:14.655Z,8.57
2023-04-18T13:47:17.532Z,8.05
2023-04-18T13:52:18.862Z,8.27
2023-04-18T13:57:20.254Z,10.10
2023-04-18T14:07:23.473Z,9.00
2023-04-18T14:12:24.867Z,11.02
2023-04-18T14:17:26.482Z,10.45
2023-04-18T14:22:27.854Z,8.25
2023-04-18T14:27:32.128Z,7.95
2023-04-18T14:32:38.180Z,9.80
2023-04-18T14:37:40.140Z,9.57
